sensor_id;sensor_type;location;lat;lon;timestamp;noise_LAeq;noise_LA_min;noise_LA_max;noise_LA01;noise_LA95
61270;Laerm;47150;53.032;8.960;2023-03-05T00:01:14;38.32;37.00;39.64;;
61270;Laerm;47150;53.032;8.960;2023-03-05T00:03:40;38.32;37.01;39.83;;
61270;Laerm;47150;53.032;8.960;2023-03-05T00:06:05;38.30;37.04;39.50;;
61270;Laerm;47150;53.032;8.960;2023-03-05T00:08:31;38.31;37.07;39.65;;
61270;Laerm;47150;53.032;8.960;2023-03-05T00:10:59;38.33;36.85;39.61;;
61270;Laerm;47150;53.032;8.960;2023-03-05T00:13:24;38.32;36.95;39.47;;
61270;Laerm;47150;53.032;8.960;2023-03-05T00:15:50;38.31;37.07;39.54;;
61270;Laerm;47150;53.032;8.960;2023-03-05T00:18:15;38.32;37.05;39.64;;
61270;Laerm;47150;53.032;8.960;2023-03-05T00:20:41;38.31;37.00;39.54;;
61270;Laerm;47150;53.032;8.960;2023-03-05T00:23:06;38.32;36.91;39.43;;
61270;Laerm;47150;53.032;8.960;2023-03-05T00:25:34;38.31;36.94;39.56;;
61270;Laerm;47150;53.032;8.960;2023-03-05T00:28:01;38.31;37.13;39.51;;
61270;Laerm;47150;53.032;8.960;2023-03-05T00:30:26;38.30;37.00;39.41;;
61270;Laerm;47150;53.032;8.960;2023-03-05T00:32:51;38.29;36.99;39.42;;
61270;Laerm;47150;53.032;8.960;2023-03-05T00:35:17;38.28;36.88;39.44;;
61270;Laerm;47150;53.032;8.960;2023-03-05T00:37:42;38.27;36.99;39.49;;
61270;Laerm;47150;53.032;8.960;2023-03-05T00:40:08;38.27;36.65;39.61;;
61270;Laerm;47150;53.032;8.960;2023-03-05T00:42:33;38.24;36.89;39.49;;
61270;Laerm;47150;53.032;8.960;2023-03-05T00:45:03;38.23;36.47;39.59;;
61270;Laerm;47150;53.032;8.960;2023-03-05T00:47:29;38.21;36.86;39.48;;
61270;Laerm;47150;53.032;8.960;2023-03-05T00:49:54;38.20;37.01;39.33;;
61270;Laerm;47150;53.032;8.960;2023-03-05T00:52:19;38.10;36.67;41.96;;
61270;Laerm;47150;53.032;8.960;2023-03-05T00:54:45;37.63;36.31;38.81;;
61270;Laerm;47150;53.032;8.960;2023-03-05T00:57:10;37.38;36.20;40.09;;
61270;Laerm;47150;53.032;8.960;2023-03-05T00:59:35;37.11;35.82;38.51;;
61270;Laerm;47150;53.032;8.960;2023-03-05T01:02:01;36.72;35.56;38.10;;
61270;Laerm;47150;53.032;8.960;2023-03-05T01:04:26;36.42;35.30;37.69;;
61270;Laerm;47150;53.032;8.960;2023-03-05T01:06:52;36.16;34.82;37.36;;
61270;Laerm;47150;53.032;8.960;2023-03-05T01:09:17;35.93;34.41;37.04;;
61270;Laerm;47150;53.032;8.960;2023-03-05T01:11:43;35.70;34.39;36.96;;
61270;Laerm;47150;53.032;8.960;2023-03-05T01:14:08;35.50;34.23;36.57;;
61270;Laerm;47150;53.032;8.960;2023-03-05T01:16:33;35.30;33.89;36.52;;
61270;Laerm;47150;53.032;8.960;2023-03-05T01:18:59;35.20;33.91;36.48;;
61270;Laerm;47150;53.032;8.960;2023-03-05T01:21:24;35.07;33.97;36.21;;
61270;Laerm;47150;53.032;8.960;2023-03-05T01:23:50;34.95;33.48;36.20;;
61270;Laerm;47150;53.032;8.960;2023-03-05T01:26:15;34.86;33.63;35.95;;
61270;Laerm;47150;53.032;8.960;2023-03-05T01:28:40;34.79;33.51;35.78;;
61270;Laerm;47150;53.032;8.960;2023-03-05T01:31:07;34.74;33.50;35.65;;
61270;Laerm;47150;53.032;8.960;2023-03-05T01:33:33;34.72;33.54;35.82;;
61270;Laerm;47150;53.032;8.960;2023-03-05T01:35:58;34.70;33.43;35.82;;
61270;Laerm;47150;53.032;8.960;2023-03-05T01:38:24;34.80;33.50;35.82;;
61270;Laerm;47150;53.032;8.960;2023-03-05T01:40:49;35.14;33.95;36.46;;
61270;Laerm;47150;53.032;8.960;2023-03-05T01:43:25;35.50;34.13;36.67;;
61270;Laerm;47150;53.032;8.960;2023-03-05T01:46:31;35.90;34.40;37.10;;
61270;Laerm;47150;53.032;8.960;2023-03-05T01:51:26;36.65;35.23;37.92;;
61270;Laerm;47150;53.032;8.960;2023-03-05T01:53:54;37.00;35.73;38.50;;
61270;Laerm;47150;53.032;8.960;2023-03-05T01:56:22;37.30;35.91;38.51;;
61270;Laerm;47150;53.032;8.960;2023-03-05T01:58:49;37.55;36.29;38.70;;
61270;Laerm;47150;53.032;8.960;2023-03-05T02:01:15;37.77;36.25;38.94;;
61270;Laerm;47150;53.032;8.960;2023-03-05T02:03:41;37.88;36.67;38.97;;
61270;Laerm;47150;53.032;8.960;2023-03-05T02:06:07;37.92;36.67;39.14;;
61270;Laerm;47150;53.032;8.960;2023-03-05T02:08:32;37.90;36.46;38.94;;
61270;Laerm;47150;53.032;8.960;2023-03-05T02:10:58;37.95;36.62;39.02;;
61270;Laerm;47150;53.032;8.960;2023-03-05T02:13:28;37.94;36.57;39.00;;
61270;Laerm;47150;53.032;8.960;2023-03-05T02:15:55;37.96;36.53;39.18;;
61270;Laerm;47150;53.032;8.960;2023-03-05T02:18:21;37.98;36.65;39.14;;
61270;Laerm;47150;53.032;8.960;2023-03-05T02:21:08;37.98;36.70;39.14;;
61270;Laerm;47150;53.032;8.960;2023-03-05T02:23:35;38.02;36.70;39.21;;
61270;Laerm;47150;53.032;8.960;2023-03-05T02:26:03;38.05;36.73;39.24;;
61270;Laerm;47150;53.032;8.960;2023-03-05T02:30:54;38.14;36.84;39.50;;
61270;Laerm;47150;53.032;8.960;2023-03-05T02:33:20;38.19;36.89;39.34;;
61270;Laerm;47150;53.032;8.960;2023-03-05T02:35:45;38.22;36.79;39.36;;
61270;Laerm;47150;53.032;8.960;2023-03-05T02:38:13;38.23;36.89;39.36;;
61270;Laerm;47150;53.032;8.960;2023-03-05T02:40:38;38.25;36.92;39.34;;
61270;Laerm;47150;53.032;8.960;2023-03-05T02:43:04;38.24;36.85;39.39;;
61270;Laerm;47150;53.032;8.960;2023-03-05T02:45:29;38.22;36.84;39.38;;
61270;Laerm;47150;53.032;8.960;2023-03-05T02:47:55;38.22;36.63;39.42;;
61270;Laerm;47150;53.032;8.960;2023-03-05T02:50:21;38.25;37.01;39.48;;
61270;Laerm;47150;53.032;8.960;2023-03-05T02:52:47;38.26;37.05;39.55;;
61270;Laerm;47150;53.032;8.960;2023-03-05T02:55:12;38.25;36.76;39.46;;
61270;Laerm;47150;53.032;8.960;2023-03-05T02:57:38;38.24;36.69;39.42;;
61270;Laerm;47150;53.032;8.960;2023-03-05T03:00:04;38.25;36.77;39.40;;
61270;Laerm;47150;53.032;8.960;2023-03-05T03:02:30;38.25;36.91;39.56;;
61270;Laerm;47150;53.032;8.960;2023-03-05T03:04:56;38.30;37.00;39.58;;
61270;Laerm;47150;53.032;8.960;2023-03-05T03:07:21;38.36;36.80;39.56;;
61270;Laerm;47150;53.032;8.960;2023-03-05T03:09:46;38.39;36.98;39.65;;
61270;Laerm;47150;53.032;8.960;2023-03-05T03:12:12;38.40;37.19;39.61;;
61270;Laerm;47150;53.032;8.960;2023-03-05T03:14:39;38.42;37.14;39.61;;
61270;Laerm;47150;53.032;8.960;2023-03-05T03:17:10;38.41;37.11;39.56;;
61270;Laerm;47150;53.032;8.960;2023-03-05T03:19:37;38.40;36.80;39.64;;
61270;Laerm;47150;53.032;8.960;2023-03-05T03:22:03;38.41;36.98;39.60;;
61270;Laerm;47150;53.032;8.960;2023-03-05T03:24:29;38.41;37.21;39.48;;
61270;Laerm;47150;53.032;8.960;2023-03-05T03:26:55;38.43;36.75;39.79;;
61270;Laerm;47150;53.032;8.960;2023-03-05T03:29:20;38.44;36.97;39.66;;
61270;Laerm;47150;53.032;8.960;2023-03-05T03:31:46;38.46;37.23;39.68;;
61270;Laerm;47150;53.032;8.960;2023-03-05T03:34:12;38.48;37.18;39.67;;
61270;Laerm;47150;53.032;8.960;2023-03-05T03:36:40;38.47;37.27;40.07;;
61270;Laerm;47150;53.032;8.960;2023-03-05T03:39:05;38.46;37.20;39.88;;
61270;Laerm;47150;53.032;8.960;2023-03-05T03:41:34;38.43;37.24;39.59;;
61270;Laerm;47150;53.032;8.960;2023-03-05T03:43:59;38.42;37.13;39.84;;
61270;Laerm;47150;53.032;8.960;2023-03-05T03:46:27;38.41;37.09;39.80;;
61270;Laerm;47150;53.032;8.960;2023-03-05T03:48:53;38.40;37.04;39.89;;
61270;Laerm;47150;53.032;8.960;2023-03-05T03:51:18;38.40;37.16;39.75;;
61270;Laerm;47150;53.032;8.960;2023-03-05T03:53:43;38.39;37.20;39.68;;
61270;Laerm;47150;53.032;8.960;2023-03-05T03:56:09;38.39;36.95;39.73;;
61270;Laerm;47150;53.032;8.960;2023-03-05T03:58:34;38.39;37.11;39.59;;
61270;Laerm;47150;53.032;8.960;2023-03-05T04:00:59;38.42;37.12;39.74;;
61270;Laerm;47150;53.032;8.960;2023-03-05T04:03:25;38.41;37.12;39.58;;
61270;Laerm;47150;53.032;8.960;2023-03-05T04:05:50;38.41;37.22;39.77;;
61270;Laerm;47150;53.032;8.960;2023-03-05T04:08:16;38.41;36.76;39.60;;
61270;Laerm;47150;53.032;8.960;2023-03-05T04:10:41;38.38;37.11;39.61;;
61270;Laerm;47150;53.032;8.960;2023-03-05T04:13:07;38.10;36.73;39.40;;
61270;Laerm;47150;53.032;8.960;2023-03-05T04:15:33;37.73;36.49;39.24;;
61270;Laerm;47150;53.032;8.960;2023-03-05T04:17:59;37.18;35.68;38.41;;
61270;Laerm;47150;53.032;8.960;2023-03-05T04:20:24;36.79;35.62;37.96;;
61270;Laerm;47150;53.032;8.960;2023-03-05T04:22:50;36.47;35.09;37.69;;
61270;Laerm;47150;53.032;8.960;2023-03-05T04:25:15;36.20;34.79;37.26;;
61270;Laerm;47150;53.032;8.960;2023-03-05T04:27:41;35.98;34.81;37.27;;
61270;Laerm;47150;53.032;8.960;2023-03-05T04:30:10;35.80;34.42;37.06;;
61270;Laerm;47150;53.032;8.960;2023-03-05T04:32:35;35.64;34.37;36.77;;
61270;Laerm;47150;53.032;8.960;2023-03-05T04:35:01;35.49;34.13;36.71;;
61270;Laerm;47150;53.032;8.960;2023-03-05T04:37:26;35.36;34.00;36.48;;
61270;Laerm;47150;53.032;8.960;2023-03-05T04:39:52;35.26;33.95;36.35;;
61270;Laerm;47150;53.032;8.960;2023-03-05T04:42:18;35.16;34.06;36.41;;
61270;Laerm;47150;53.032;8.960;2023-03-05T04:44:45;35.05;33.93;36.41;;
61270;Laerm;47150;53.032;8.960;2023-03-05T04:47:10;34.96;33.77;36.14;;
61270;Laerm;47150;53.032;8.960;2023-03-05T04:49:36;34.88;33.65;36.03;;
61270;Laerm;47150;53.032;8.960;2023-03-05T04:52:01;34.79;33.46;35.96;;
61270;Laerm;47150;53.032;8.960;2023-03-05T04:54:26;34.72;33.56;36.00;;
61270;Laerm;47150;53.032;8.960;2023-03-05T04:56:52;34.66;33.38;35.96;;
61270;Laerm;47150;53.032;8.960;2023-03-05T04:59:17;34.58;33.38;35.78;;
61270;Laerm;47150;53.032;8.960;2023-03-05T05:01:43;34.53;33.28;35.63;;
61270;Laerm;47150;53.032;8.960;2023-03-05T05:04:08;34.49;33.40;35.72;;
61270;Laerm;47150;53.032;8.960;2023-03-05T05:06:34;34.46;33.32;35.69;;
61270;Laerm;47150;53.032;8.960;2023-03-05T05:08:59;34.44;33.20;35.56;;
61270;Laerm;47150;53.032;8.960;2023-03-05T05:11:24;34.41;33.16;35.71;;
61270;Laerm;47150;53.032;8.960;2023-03-05T05:13:50;34.40;33.09;35.67;;
61270;Laerm;47150;53.032;8.960;2023-03-05T05:16:15;34.41;33.08;35.52;;
61270;Laerm;47150;53.032;8.960;2023-03-05T05:18:41;34.44;33.32;35.78;;
61270;Laerm;47150;53.032;8.960;2023-03-05T05:21:11;34.53;33.38;35.96;;
61270;Laerm;47150;53.032;8.960;2023-03-05T05:23:37;34.72;33.51;35.81;;
61270;Laerm;47150;53.032;8.960;2023-03-05T05:26:04;34.90;33.68;36.15;;
61270;Laerm;47150;53.032;8.960;2023-03-05T05:28:30;35.03;33.57;36.16;;
61270;Laerm;47150;53.032;8.960;2023-03-05T05:30:56;35.16;33.97;36.36;;
61270;Laerm;47150;53.032;8.960;2023-03-05T05:33:22;35.30;33.99;36.34;;
61270;Laerm;47150;53.032;8.960;2023-03-05T05:35:47;35.29;34.16;36.39;;
61270;Laerm;47150;53.032;8.960;2023-03-05T05:38:13;35.31;33.99;36.37;;
61270;Laerm;47150;53.032;8.960;2023-03-05T05:40:38;35.43;34.32;36.59;;
61270;Laerm;47150;53.032;8.960;2023-03-05T05:43:04;35.58;34.30;36.91;;
61270;Laerm;47150;53.032;8.960;2023-03-05T05:45:29;35.76;34.48;36.97;;
61270;Laerm;47150;53.032;8.960;2023-03-05T05:47:55;35.95;34.70;37.41;;
61270;Laerm;47150;53.032;8.960;2023-03-05T05:50:20;36.13;34.96;37.30;;
61270;Laerm;47150;53.032;8.960;2023-03-05T05:52:46;36.41;35.17;37.88;;
61270;Laerm;47150;53.032;8.960;2023-03-05T05:55:11;36.62;35.47;37.81;;
61270;Laerm;47150;53.032;8.960;2023-03-05T05:57:37;36.86;35.63;38.07;;
61270;Laerm;47150;53.032;8.960;2023-03-05T06:00:10;37.10;35.90;38.24;;
61270;Laerm;47150;53.032;8.960;2023-03-05T06:02:38;37.24;35.80;38.33;;
61270;Laerm;47150;53.032;8.960;2023-03-05T06:05:03;37.34;36.11;38.41;;
61270;Laerm;47150;53.032;8.960;2023-03-05T06:07:29;37.40;36.00;38.72;;
61270;Laerm;47150;53.032;8.960;2023-03-05T06:09:55;37.40;36.01;38.54;;
61270;Laerm;47150;53.032;8.960;2023-03-05T06:12:21;37.41;36.12;38.56;;
61270;Laerm;47150;53.032;8.960;2023-03-05T06:14:46;37.41;36.29;38.76;;
61270;Laerm;47150;53.032;8.960;2023-03-05T06:17:12;37.37;36.30;38.48;;
61270;Laerm;47150;53.032;8.960;2023-03-05T06:19:37;37.32;36.04;38.59;;
61270;Laerm;47150;53.032;8.960;2023-03-05T06:22:02;37.29;36.13;38.47;;
61270;Laerm;47150;53.032;8.960;2023-03-05T06:24:28;37.24;36.09;38.37;;
61270;Laerm;47150;53.032;8.960;2023-03-05T06:26:53;37.19;36.01;38.28;;
61270;Laerm;47150;53.032;8.960;2023-03-05T06:29:18;37.17;35.92;38.37;;
61270;Laerm;47150;53.032;8.960;2023-03-05T06:31:44;37.15;35.93;38.46;;
61270;Laerm;47150;53.032;8.960;2023-03-05T06:34:10;37.12;35.83;38.36;;
61270;Laerm;47150;53.032;8.960;2023-03-05T06:36:37;37.13;35.93;38.27;;
61270;Laerm;47150;53.032;8.960;2023-03-05T06:39:02;37.19;35.89;38.53;;
61270;Laerm;47150;53.032;8.960;2023-03-05T06:41:29;37.19;35.79;38.49;;
61270;Laerm;47150;53.032;8.960;2023-03-05T06:43:55;37.11;35.72;38.36;;
61270;Laerm;47150;53.032;8.960;2023-03-05T06:46:26;36.89;35.66;38.17;;
61270;Laerm;47150;53.032;8.960;2023-03-05T06:48:54;36.62;35.41;37.69;;
61270;Laerm;47150;53.032;8.960;2023-03-05T06:53:51;36.20;35.19;37.37;;
61270;Laerm;47150;53.032;8.960;2023-03-05T06:56:18;36.03;34.76;37.39;;
61270;Laerm;47150;53.032;8.960;2023-03-05T06:58:45;35.89;34.52;37.18;;
61270;Laerm;47150;53.032;8.960;2023-03-05T07:01:12;35.76;34.53;36.91;;
61270;Laerm;47150;53.032;8.960;2023-03-05T07:03:37;35.65;34.45;36.88;;
61270;Laerm;47150;53.032;8.960;2023-03-05T07:06:09;35.56;34.37;36.66;;
61270;Laerm;47150;53.032;8.960;2023-03-05T07:08:34;35.48;34.11;36.72;;
61270;Laerm;47150;53.032;8.960;2023-03-05T07:11:00;35.40;34.20;36.57;;
61270;Laerm;47150;53.032;8.960;2023-03-05T07:13:26;35.32;34.26;36.41;;
61270;Laerm;47150;53.032;8.960;2023-03-05T07:15:52;35.26;34.15;36.38;;
61270;Laerm;47150;53.032;8.960;2023-03-05T07:18:17;35.21;34.07;36.24;;
61270;Laerm;47150;53.032;8.960;2023-03-05T07:20:43;35.14;33.95;36.38;;
61270;Laerm;47150;53.032;8.960;2023-03-05T07:23:08;35.04;33.65;36.20;;
61270;Laerm;47150;53.032;8.960;2023-03-05T07:25:37;34.96;33.52;36.17;;
61270;Laerm;47150;53.032;8.960;2023-03-05T07:28:04;34.92;33.83;36.19;;
61270;Laerm;47150;53.032;8.960;2023-03-05T07:30:30;34.86;33.57;36.00;;
61270;Laerm;47150;53.032;8.960;2023-03-05T07:32:56;34.80;33.72;36.04;;
61270;Laerm;47150;53.032;8.960;2023-03-05T07:35:21;34.74;33.56;35.85;;
61270;Laerm;47150;53.032;8.960;2023-03-05T07:37:48;34.69;33.56;35.82;;
61270;Laerm;47150;53.032;8.960;2023-03-05T07:40:14;34.64;33.56;36.08;;
61270;Laerm;47150;53.032;8.960;2023-03-05T07:42:39;34.61;33.36;35.76;;
61270;Laerm;47150;53.032;8.960;2023-03-05T07:45:05;34.58;33.39;35.55;;
61270;Laerm;47150;53.032;8.960;2023-03-05T07:47:31;34.56;33.33;35.62;;
61270;Laerm;47150;53.032;8.960;2023-03-05T07:49:56;34.52;33.34;35.71;;
61270;Laerm;47150;53.032;8.960;2023-03-05T07:52:21;34.48;33.15;35.59;;
61270;Laerm;47150;53.032;8.960;2023-03-05T07:54:47;34.45;33.04;35.59;;
61270;Laerm;47150;53.032;8.960;2023-03-05T07:57:13;34.41;32.94;35.47;;
61270;Laerm;47150;53.032;8.960;2023-03-05T07:59:39;34.38;33.21;35.59;;
61270;Laerm;47150;53.032;8.960;2023-03-05T08:02:05;34.33;33.19;35.53;;
61270;Laerm;47150;53.032;8.960;2023-03-05T08:04:31;34.29;33.03;35.44;;
61270;Laerm;47150;53.032;8.960;2023-03-05T08:06:57;34.25;33.09;35.41;;
61270;Laerm;47150;53.032;8.960;2023-03-05T08:09:22;34.23;32.90;35.40;;
61270;Laerm;47150;53.032;8.960;2023-03-05T08:11:48;34.21;32.89;35.40;;
61270;Laerm;47150;53.032;8.960;2023-03-05T08:14:13;34.18;33.03;35.28;;
61270;Laerm;47150;53.032;8.960;2023-03-05T08:16:39;34.17;32.77;35.15;;
61270;Laerm;47150;53.032;8.960;2023-03-05T08:19:05;34.14;32.99;35.14;;
61270;Laerm;47150;53.032;8.960;2023-03-05T08:21:32;34.13;32.88;35.33;;
61270;Laerm;47150;53.032;8.960;2023-03-05T08:23:59;34.11;32.86;35.19;;
61270;Laerm;47150;53.032;8.960;2023-03-05T08:26:27;34.07;32.77;35.31;;
61270;Laerm;47150;53.032;8.960;2023-03-05T08:28:53;34.05;32.78;35.37;;
61270;Laerm;47150;53.032;8.960;2023-03-05T08:31:21;34.03;32.90;35.11;;
61270;Laerm;47150;53.032;8.960;2023-03-05T08:33:51;34.05;32.83;35.06;;
61270;Laerm;47150;53.032;8.960;2023-03-05T08:36:16;34.10;33.01;35.22;;
61270;Laerm;47150;53.032;8.960;2023-03-05T08:38:42;34.65;33.32;35.94;;
61270;Laerm;47150;53.032;8.960;2023-03-05T08:41:09;35.45;34.02;36.87;;
61270;Laerm;47150;53.032;8.960;2023-03-05T08:43:35;36.10;34.71;37.54;;
61270;Laerm;47150;53.032;8.960;2023-03-05T08:46:01;36.75;35.33;38.09;;
61270;Laerm;47150;53.032;8.960;2023-03-05T08:48:27;37.39;36.03;38.90;;
61270;Laerm;47150;53.032;8.960;2023-03-05T08:50:53;38.11;36.42;39.44;;
61270;Laerm;47150;53.032;8.960;2023-03-05T08:53:18;38.53;37.23;39.77;;
61270;Laerm;47150;53.032;8.960;2023-03-05T08:55:52;38.62;37.25;39.79;;
61270;Laerm;47150;53.032;8.960;2023-03-05T08:58:18;38.60;37.25;40.07;;
61270;Laerm;47150;53.032;8.960;2023-03-05T09:00:43;38.55;37.22;39.90;;
61270;Laerm;47150;53.032;8.960;2023-03-05T09:03:08;38.38;37.07;39.54;;
61270;Laerm;47150;53.032;8.960;2023-03-05T09:05:34;38.14;36.71;39.49;;
61270;Laerm;47150;53.032;8.960;2023-03-05T09:08:00;37.91;36.45;39.09;;
61270;Laerm;47150;53.032;8.960;2023-03-05T09:10:25;37.85;36.45;39.33;;
61270;Laerm;47150;53.032;8.960;2023-03-05T09:12:50;37.92;36.53;39.20;;
61270;Laerm;47150;53.032;8.960;2023-03-05T09:15:16;37.93;36.58;39.12;;
61270;Laerm;47150;53.032;8.960;2023-03-05T09:17:41;37.82;36.38;39.15;;
61270;Laerm;47150;53.032;8.960;2023-03-05T09:20:11;37.81;36.50;39.13;;
61270;Laerm;47150;53.032;8.960;2023-03-05T09:22:37;37.76;36.36;39.23;;
61270;Laerm;47150;53.032;8.960;2023-03-05T09:25:02;37.75;36.48;39.05;;
61270;Laerm;47150;53.032;8.960;2023-03-05T09:27:27;37.69;36.13;38.98;;
61270;Laerm;47150;53.032;8.960;2023-03-05T09:29:53;37.75;36.48;38.95;;
61270;Laerm;47150;53.032;8.960;2023-03-05T09:32:19;37.68;36.42;38.94;;
61270;Laerm;47150;53.032;8.960;2023-03-05T09:34:45;37.62;35.86;39.09;;
61270;Laerm;47150;53.032;8.960;2023-03-05T09:37:10;37.56;36.23;38.85;;
61270;Laerm;47150;53.032;8.960;2023-03-05T09:39:35;37.58;35.86;38.83;;
61270;Laerm;47150;53.032;8.960;2023-03-05T09:52:49;37.53;36.17;38.65;;
61270;Laerm;47150;53.032;8.960;2023-03-05T09:55:38;37.54;36.27;38.76;;
61270;Laerm;47150;53.032;8.960;2023-03-05T09:58:18;37.50;36.22;38.90;;
61270;Laerm;47150;53.032;8.960;2023-03-05T10:00:54;37.44;35.95;38.66;;
61270;Laerm;47150;53.032;8.960;2023-03-05T10:03:26;37.40;36.05;38.69;;
61270;Laerm;47150;53.032;8.960;2023-03-05T10:08:21;37.37;36.13;38.98;;
61270;Laerm;47150;53.032;8.960;2023-03-05T10:10:51;37.39;35.95;38.83;;
61270;Laerm;47150;53.032;8.960;2023-03-05T10:13:23;37.40;35.97;38.52;;
61270;Laerm;47150;53.032;8.960;2023-03-05T10:34:24;37.05;35.65;38.57;;
61270;Laerm;47150;53.032;8.960;2023-03-05T10:42:29;36.48;35.11;37.92;;
61270;Laerm;47150;53.032;8.960;2023-03-05T10:45:04;36.58;35.26;38.63;;
61270;Laerm;47150;53.032;8.960;2023-03-05T10:47:56;36.31;34.87;44.49;;
61270;Laerm;47150;53.032;8.960;2023-03-05T10:50:32;36.38;34.92;42.06;;
61270;Laerm;47150;53.032;8.960;2023-03-05T10:56:02;36.30;34.88;39.17;;
61270;Laerm;47150;53.032;8.960;2023-03-05T10:58:28;36.26;34.93;37.86;;
61270;Laerm;47150;53.032;8.960;2023-03-05T11:03:53;36.44;35.03;38.04;;
61270;Laerm;47150;53.032;8.960;2023-03-05T11:06:34;36.65;35.13;38.20;;
61270;Laerm;47150;53.032;8.960;2023-03-05T11:11:36;37.01;35.51;38.26;;
61270;Laerm;47150;53.032;8.960;2023-03-05T11:14:02;36.97;35.60;38.41;;
61270;Laerm;47150;53.032;8.960;2023-03-05T11:16:44;36.95;35.71;38.43;;
61270;Laerm;47150;53.032;8.960;2023-03-05T11:21:38;37.56;35.85;39.00;;
61270;Laerm;47150;53.032;8.960;2023-03-05T11:24:16;37.96;36.63;39.36;;
61270;Laerm;47150;53.032;8.960;2023-03-05T11:29:20;38.43;37.01;39.74;;
61270;Laerm;47150;53.032;8.960;2023-03-05T11:31:47;38.49;37.08;39.86;;
61270;Laerm;47150;53.032;8.960;2023-03-05T11:39:18;38.22;36.76;39.47;;
61270;Laerm;47150;53.032;8.960;2023-03-05T11:41:51;38.26;36.58;39.61;;
61270;Laerm;47150;53.032;8.960;2023-03-05T11:44:27;38.21;36.97;39.45;;
61270;Laerm;47150;53.032;8.960;2023-03-05T11:47:25;37.99;36.54;39.64;;
61270;Laerm;47150;53.032;8.960;2023-03-05T11:52:53;37.64;36.19;38.89;;
61270;Laerm;47150;53.032;8.960;2023-03-05T11:55:25;37.59;36.19;38.87;;
61270;Laerm;47150;53.032;8.960;2023-03-05T12:00:55;37.58;36.20;38.75;;
61270;Laerm;47150;53.032;8.960;2023-03-05T12:03:24;37.56;35.85;38.79;;
61270;Laerm;47150;53.032;8.960;2023-03-05T12:05:54;37.76;36.49;39.21;;
61270;Laerm;47150;53.032;8.960;2023-03-05T12:08:26;37.80;36.30;39.20;;
61270;Laerm;47150;53.032;8.960;2023-03-05T12:10:54;37.65;36.12;38.94;;
61270;Laerm;47150;53.032;8.960;2023-03-05T12:13:29;37.57;36.32;38.81;;
61270;Laerm;47150;53.032;8.960;2023-03-05T12:18:56;37.52;36.30;38.80;;
61270;Laerm;47150;53.032;8.960;2023-03-05T12:21:26;37.50;36.33;38.76;;
61270;Laerm;47150;53.032;8.960;2023-03-05T12:23:55;37.47;36.08;38.72;;
61270;Laerm;47150;53.032;8.960;2023-03-05T12:47:34;37.10;35.56;38.50;;
61270;Laerm;47150;53.032;8.960;2023-03-05T12:50:00;36.83;35.26;38.13;;
61270;Laerm;47150;53.032;8.960;2023-03-05T12:52:30;36.57;34.51;37.86;;
61270;Laerm;47150;53.032;8.960;2023-03-05T12:55:02;36.59;35.15;38.15;;
61270;Laerm;47150;53.032;8.960;2023-03-05T12:57:37;36.30;34.47;38.18;;
61270;Laerm;47150;53.032;8.960;2023-03-05T13:00:10;36.02;34.57;37.36;;
61270;Laerm;47150;53.032;8.960;2023-03-05T13:02:44;36.14;34.38;38.47;;
61270;Laerm;47150;53.032;8.960;2023-03-05T13:05:23;36.18;34.79;40.87;;
61270;Laerm;47150;53.032;8.960;2023-03-05T13:07:49;36.23;34.68;37.64;;
61270;Laerm;47150;53.032;8.960;2023-03-05T13:10:23;36.29;35.01;39.38;;
61270;Laerm;47150;53.032;8.960;2023-03-05T13:12:52;36.33;34.84;38.09;;
61270;Laerm;47150;53.032;8.960;2023-03-05T13:15:18;36.34;34.86;37.61;;
61270;Laerm;47150;53.032;8.960;2023-03-05T13:17:56;36.28;34.85;40.49;;
61270;Laerm;47150;53.032;8.960;2023-03-05T13:23:01;36.15;34.55;37.46;;
61270;Laerm;47150;53.032;8.960;2023-03-05T13:25:27;36.30;34.97;37.60;;
61270;Laerm;47150;53.032;8.960;2023-03-05T13:28:05;36.13;34.79;37.65;;
61270;Laerm;47150;53.032;8.960;2023-03-05T13:30:33;35.74;34.17;39.54;;
61270;Laerm;47150;53.032;8.960;2023-03-05T13:33:01;35.56;34.15;37.67;;
61270;Laerm;47150;53.032;8.960;2023-03-05T13:35:27;35.54;33.90;36.79;;
61270;Laerm;47150;53.032;8.960;2023-03-05T13:37:53;35.58;34.25;36.94;;
61270;Laerm;47150;53.032;8.960;2023-03-05T13:40:23;35.70;34.24;37.88;;
61270;Laerm;47150;53.032;8.960;2023-03-05T13:42:49;35.62;34.26;41.12;;
61270;Laerm;47150;53.032;8.960;2023-03-05T13:45:28;35.66;34.11;36.96;;
61270;Laerm;47150;53.032;8.960;2023-03-05T13:47:57;35.86;34.40;48.23;;
61270;Laerm;47150;53.032;8.960;2023-03-05T13:50:27;35.87;34.44;37.23;;
61270;Laerm;47150;53.032;8.960;2023-03-05T13:52:54;35.97;34.65;38.40;;
61270;Laerm;47150;53.032;8.960;2023-03-05T13:55:19;36.10;34.44;39.44;;
61270;Laerm;47150;53.032;8.960;2023-03-05T13:57:50;36.30;34.91;37.64;;
61270;Laerm;47150;53.032;8.960;2023-03-05T14:02:59;36.84;35.46;42.28;;
61270;Laerm;47150;53.032;8.960;2023-03-05T14:05:25;36.88;35.40;45.12;;
61270;Laerm;47150;53.032;8.960;2023-03-05T14:07:51;36.77;35.32;38.15;;
61270;Laerm;47150;53.032;8.960;2023-03-05T14:10:28;36.78;35.27;38.18;;
61270;Laerm;47150;53.032;8.960;2023-03-05T14:12:54;36.80;35.44;38.97;;
61270;Laerm;47150;53.032;8.960;2023-03-05T14:15:23;36.68;35.19;37.94;;
61270;Laerm;47150;53.032;8.960;2023-03-05T14:17:49;36.69;35.20;38.02;;
61270;Laerm;47150;53.032;8.960;2023-03-05T14:22:46;37.11;35.52;38.87;;
61270;Laerm;47150;53.032;8.960;2023-03-05T14:25:36;37.94;36.22;39.24;;
61270;Laerm;47150;53.032;8.960;2023-03-05T14:28:24;37.52;35.97;39.04;;
61270;Laerm;47150;53.032;8.960;2023-03-05T14:30:52;36.79;35.63;38.01;;
61270;Laerm;47150;53.032;8.960;2023-03-05T14:33:29;36.44;35.11;37.86;;
61270;Laerm;47150;53.032;8.960;2023-03-05T14:35:57;36.16;35.05;37.40;;
61270;Laerm;47150;53.032;8.960;2023-03-05T14:38:28;35.95;34.50;37.20;;
61270;Laerm;47150;53.032;8.960;2023-03-05T14:40:54;37.39;35.10;39.48;;
61270;Laerm;47150;53.032;8.960;2023-03-05T14:43:20;38.54;36.73;39.84;;
61270;Laerm;47150;53.032;8.960;2023-03-05T14:45:45;37.91;36.41;39.29;;
61270;Laerm;47150;53.032;8.960;2023-03-05T14:48:14;37.94;36.54;39.35;;
61270;Laerm;47150;53.032;8.960;2023-03-05T14:50:45;37.73;36.23;39.09;;
61270;Laerm;47150;53.032;8.960;2023-03-05T14:53:17;37.63;36.18;38.98;;
61270;Laerm;47150;53.032;8.960;2023-03-05T14:55:46;37.63;36.39;38.92;;
61270;Laerm;47150;53.032;8.960;2023-03-05T14:58:17;37.67;36.10;38.99;;
61270;Laerm;47150;53.032;8.960;2023-03-05T15:00:43;38.27;36.89;39.77;;
61270;Laerm;47150;53.032;8.960;2023-03-05T15:03:14;38.47;37.26;39.68;;
61270;Laerm;47150;53.032;8.960;2023-03-05T15:05:41;38.52;37.21;39.78;;
61270;Laerm;47150;53.032;8.960;2023-03-05T15:08:14;38.28;36.77;39.76;;
61270;Laerm;47150;53.032;8.960;2023-03-05T15:10:41;37.65;36.37;38.78;;
61270;Laerm;47150;53.032;8.960;2023-03-05T15:13:07;37.19;36.00;38.51;;
61270;Laerm;47150;53.032;8.960;2023-03-05T15:15:32;36.87;35.32;38.01;;
61270;Laerm;47150;53.032;8.960;2023-03-05T15:17:58;36.69;35.53;37.90;;
61270;Laerm;47150;53.032;8.960;2023-03-05T15:20:26;36.55;35.00;40.03;;
61270;Laerm;47150;53.032;8.960;2023-03-05T15:22:52;36.35;35.11;37.60;;
61270;Laerm;47150;53.032;8.960;2023-03-05T15:25:19;36.20;34.78;37.68;;
61270;Laerm;47150;53.032;8.960;2023-03-05T15:27:45;36.00;34.73;37.21;;